Terminal Aerodrome Forecast
Issued by NWS

Home | Current Version | Previous Version | Text Only | Print | Product List | Glossary On
Versions: 1 2 3 4 5 6 7 8 9 10 11 12
000
FTUS42 TJSJ 012342
TAFJPS
TAF
TJPS 012342Z 0200/0224 07010KT P6SM FEW025 SCT250
     FM021500 15012G20KT P6SM FEW030
     FM022330 09007KT P6SM FEW030
      AMD NOT SKED TIL 020300=

USA.gov is the U.S. government's official web portal to all federal, state and local government web resources and services.